createdAt,value
2022-08-22T00:02:52.694Z,101542.53
2022-08-22T00:04:49.237Z,101603.66
2022-08-22T00:10:25.578Z,101598.41
2022-08-22T00:15:59.015Z,101607.84
2022-08-22T00:21:35.508Z,101611.28
2022-08-22T00:27:07.633Z,101613.88
2022-08-22T00:32:50.816Z,101617.28
2022-08-22T00:38:20.138Z,101624.16
2022-08-22T00:44:03.197Z,101621.59
2022-08-22T00:49:32.805Z,101614.59
2022-08-22T00:55:23.851Z,101624.06
2022-08-22T01:00:51.897Z,101623.19
2022-08-22T01:06:37.199Z,101636.03
2022-08-22T01:12:32.241Z,101630.88
2022-08-22T01:18:24.059Z,101630.16
2022-08-22T01:24:07.002Z,101637.13
2022-08-22T01:30:23.381Z,101632.16
2022-08-22T01:36:14.832Z,101641.88
2022-08-22T01:42:05.595Z,101643.75
2022-08-22T01:47:37.514Z,101650.72
2022-08-22T01:53:04.015Z,101652.41
2022-08-22T01:58:31.027Z,101660.28
2022-08-22T02:04:14.764Z,101668.13
2022-08-22T02:09:38.547Z,101661.16
2022-08-22T02:15:14.249Z,101656.94
2022-08-22T02:20:54.208Z,101651.69
2022-08-22T02:26:20.207Z,101659.47
2022-08-22T02:31:56.451Z,101657.09
2022-08-22T02:37:33.221Z,101653.00
2022-08-22T02:43:03.519Z,101659.22
2022-08-22T02:48:37.392Z,101658.63
2022-08-22T02:54:17.796Z,101659.72
2022-08-22T03:00:00.999Z,101662.63
2022-08-22T03:05:44.764Z,101655.09
2022-08-22T03:11:26.446Z,101663.09
2022-08-22T03:16:49.739Z,101663.44
2022-08-22T03:22:17.371Z,101660.25
2022-08-22T03:27:53.452Z,101659.53
2022-08-22T03:33:21.162Z,101666.03
2022-08-22T03:39:17.755Z,101660.06
2022-08-22T03:45:01.893Z,101666.25
2022-08-22T03:50:44.894Z,101663.59
2022-08-22T03:56:05.576Z,101669.88
2022-08-22T04:01:41.371Z,101670.00
2022-08-22T04:07:31.499Z,101670.13
2022-08-22T04:13:14.838Z,101671.97
2022-08-22T04:18:43.723Z,101673.72
2022-08-22T04:24:37.292Z,101680.66
2022-08-22T04:30:08.855Z,101688.38
2022-08-22T04:35:34.218Z,101685.66
2022-08-22T04:41:04.966Z,101693.25
2022-08-22T04:46:36.811Z,101700.06
2022-08-22T04:52:04.141Z,101707.63
2022-08-22T04:58:30.257Z,101709.16
2022-08-22T05:04:04.867Z,101708.78
2022-08-22T05:09:30.255Z,101717.13
2022-08-22T05:15:01.352Z,101717.66
2022-08-22T05:20:26.039Z,101719.03
2022-08-22T05:25:52.189Z,101718.75
2022-08-22T05:31:17.768Z,101720.16
2022-08-22T05:37:02.930Z,101730.28
2022-08-22T05:42:43.347Z,101729.91
2022-08-22T05:48:16.592Z,101729.53
2022-08-22T05:53:42.523Z,101739.56
2022-08-22T05:59:14.491Z,101746.84
2022-08-22T06:04:44.737Z,101751.41
2022-08-22T06:10:20.492Z,101749.09
2022-08-22T06:15:48.179Z,101757.00
2022-08-22T06:21:18.925Z,101752.78
2022-08-22T06:26:46.079Z,101758.81
2022-08-22T06:32:16.707Z,101763.16
2022-08-22T06:37:59.737Z,101770.16
2022-08-22T06:43:24.617Z,101766.72
2022-08-22T06:48:46.044Z,101770.09
2022-08-22T06:54:15.050Z,101764.97
2022-08-22T06:59:38.754Z,101761.69
2022-08-22T07:04:59.630Z,101777.41
2022-08-22T07:10:23.258Z,101778.91
2022-08-22T07:15:53.600Z,101785.06
2022-08-22T07:21:31.039Z,101784.66
2022-08-22T07:27:16.009Z,101789.84
2022-08-22T07:32:55.156Z,101788.63
2022-08-22T07:38:34.839Z,101791.66
2022-08-22T07:44:21.228Z,101785.47
2022-08-22T07:49:54.925Z,101790.75
2022-08-22T07:55:20.108Z,101795.59
2022-08-22T08:00:47.168Z,101789.94
2022-08-22T08:06:09.372Z,101781.84
2022-08-22T08:11:39.772Z,101787.91
2022-08-22T08:17:03.900Z,101792.84
2022-08-22T08:22:27.144Z,101790.72
2022-08-22T08:28:07.947Z,101793.78
2022-08-22T08:33:32.460Z,101783.50
2022-08-22T08:38:58.041Z,101795.63
2022-08-22T08:44:54.385Z,101785.63
2022-08-22T08:50:38.961Z,101781.06
2022-08-22T08:56:21.389Z,101786.16
2022-08-22T09:01:52.586Z,101780.72
2022-08-22T09:08:11.658Z,101780.03
2022-08-22T09:14:11.056Z,101789.59
2022-08-22T09:19:49.082Z,101792.66
2022-08-22T09:25:38.587Z,101785.75
2022-08-22T09:31:32.778Z,101802.34
2022-08-22T09:37:04.589Z,101803.47
2022-08-22T09:42:48.561Z,101794.56
2022-08-22T09:48:34.379Z,101796.47
2022-08-22T09:54:19.131Z,101793.53
2022-08-22T09:59:58.425Z,101793.28
2022-08-22T10:05:44.035Z,101795.13
2022-08-22T10:11:18.871Z,101792.13
2022-08-22T10:16:53.529Z,101800.31
2022-08-22T10:22:33.122Z,101809.22
2022-08-22T18:56:20.854Z,101643.31
2022-08-22T19:01:51.809Z,101646.50
2022-08-22T19:07:24.620Z,101652.88
2022-08-22T19:13:00.815Z,101648.75
2022-08-22T19:19:03.157Z,101650.38
2022-08-22T19:24:26.749Z,101646.94
2022-08-22T19:29:47.392Z,101658.84
2022-08-22T19:35:20.206Z,101650.25
2022-08-22T19:40:46.218Z,101653.75
2022-08-22T19:46:11.083Z,101657.06
2022-08-22T19:51:32.424Z,101660.19
2022-08-22T19:57:19.216Z,101657.25
2022-08-22T20:03:01.962Z,101658.59
2022-08-22T20:08:53.134Z,101657.19
2022-08-22T20:14:22.449Z,101644.41
2022-08-22T20:20:17.674Z,101640.31
2022-08-22T20:25:52.947Z,101645.56
2022-08-22T20:31:22.128Z,101652.63
2022-08-22T20:36:44.896Z,101638.78
2022-08-22T20:42:13.269Z,101640.53
2022-08-22T20:47:40.768Z,101641.19
2022-08-22T20:53:19.935Z,101632.22
2022-08-22T20:58:40.601Z,101625.94
2022-08-22T21:04:03.991Z,101623.09
2022-08-22T21:10:36.475Z,101622.91
2022-08-22T21:15:59.183Z,101624.66
2022-08-22T21:21:28.238Z,101629.84
2022-08-22T21:26:58.784Z,101617.78
2022-08-22T21:32:43.154Z,101624.59
2022-08-22T21:38:04.215Z,101628.88
2022-08-22T21:43:36.744Z,101620.19
2022-08-22T21:49:05.603Z,101625.19
2022-08-22T21:54:29.235Z,101625.13
2022-08-22T21:59:59.104Z,101629.41
2022-08-22T22:05:21.032Z,101622.50
2022-08-22T22:10:43.533Z,101627.72
2022-08-22T22:16:06.652Z,101624.38
2022-08-22T22:21:28.210Z,101635.41
2022-08-22T22:26:49.144Z,101631.13
2022-08-22T22:32:09.641Z,101625.13
2022-08-22T22:37:31.316Z,101618.25
2022-08-22T22:42:54.880Z,101628.34
2022-08-22T22:48:18.220Z,101615.97
2022-08-22T22:53:45.839Z,101611.47
2022-08-22T22:59:13.531Z,101613.75
2022-08-22T23:04:38.844Z,101617.97
2022-08-22T23:09:59.466Z,101610.91
2022-08-22T23:15:22.026Z,101613.63
2022-08-22T23:20:42.539Z,101605.09
2022-08-22T23:26:03.014Z,101608.59
2022-08-22T23:31:26.801Z,101594.91
2022-08-22T23:36:47.547Z,101596.78
2022-08-22T23:42:09.917Z,101592.63
2022-08-22T23:47:30.247Z,101597.75
2022-08-22T23:52:51.184Z,101590.81
2022-08-22T23:58:11.674Z,101583.84
